createdAt,value
2024-01-14T00:08:45.843Z,-2.31
2024-01-14T00:23:47.805Z,-1.46
2024-01-14T00:38:49.930Z,-0.96
2024-01-14T00:53:52.090Z,-0.86
2024-01-14T01:08:54.032Z,-0.42
2024-01-14T01:23:56.180Z,-0.65
2024-01-14T01:38:58.259Z,-0.54
2024-01-14T01:54:00.337Z,-0.63
2024-01-14T02:09:02.378Z,-0.53
2024-01-14T02:24:35.326Z,-0.48
2024-01-14T02:39:37.276Z,-0.66
2024-01-14T02:54:39.254Z,-0.79
2024-01-14T03:09:41.325Z,-0.66
2024-01-14T03:24:43.486Z,-1.15
2024-01-14T03:39:45.460Z,-0.94
2024-01-14T03:54:47.373Z,-0.70
2024-01-14T04:09:49.261Z,-0.67
2024-01-14T04:24:51.174Z,-0.74
2024-01-14T04:39:55.042Z,-1.10
2024-01-14T04:54:56.949Z,-0.68
2024-01-14T05:09:59.067Z,-0.82
2024-01-14T05:25:01.074Z,-0.85
2024-01-14T05:40:03.283Z,-1.02
2024-01-14T05:55:05.974Z,-0.94
2024-01-14T06:10:09.746Z,-0.93
2024-01-14T06:25:11.701Z,-0.66
2024-01-14T06:40:18.413Z,1.09
2024-01-14T06:55:23.477Z,2.64
2024-01-14T07:10:25.382Z,3.84
2024-01-14T07:25:27.672Z,2.35
2024-01-14T07:40:29.581Z,4.24
2024-01-14T07:55:31.879Z,5.74
2024-01-14T08:10:34.589Z,6.66
2024-01-14T08:25:36.625Z,4.74
2024-01-14T08:40:38.684Z,5.87
2024-01-14T08:55:40.612Z,7.62
2024-01-14T09:10:42.579Z,6.92
2024-01-14T09:25:44.517Z,7.49
2024-01-14T09:40:52.633Z,6.04
2024-01-14T09:55:55.444Z,7.38
2024-01-14T10:10:58.592Z,6.88
2024-01-14T10:26:04.135Z,6.01
2024-01-14T10:41:06.314Z,6.99
2024-01-14T10:56:16.828Z,5.60
2024-01-14T11:11:25.253Z,5.72
2024-01-14T11:26:29.470Z,4.71
2024-01-14T11:41:32.655Z,6.17
2024-01-14T11:56:37.500Z,6.07
2024-01-14T12:11:40.301Z,6.19
2024-01-14T12:26:48.250Z,5.31
2024-01-14T12:41:54.558Z,4.96
2024-01-14T12:57:16.284Z,5.88
2024-01-14T13:12:22.576Z,5.12
2024-01-14T13:27:25.100Z,5.01
2024-01-14T13:42:27.442Z,4.13
2024-01-14T13:57:29.539Z,4.49
2024-01-14T14:12:31.588Z,4.43
2024-01-14T14:27:33.729Z,5.33
2024-01-14T14:42:35.721Z,5.61
2024-01-14T14:57:37.718Z,5.62
2024-01-14T15:12:39.649Z,5.48
2024-01-14T15:27:42.128Z,5.45
2024-01-14T15:42:44.180Z,5.41
2024-01-14T15:57:46.341Z,5.37
2024-01-14T16:12:48.495Z,4.92
2024-01-14T16:27:50.402Z,5.08
2024-01-14T16:42:53.090Z,5.08
2024-01-14T16:57:55.664Z,4.97
2024-01-14T17:12:58.483Z,3.37
2024-01-14T17:28:01.505Z,3.27
2024-01-14T17:43:03.581Z,3.39
2024-01-14T17:58:05.894Z,2.87
2024-01-14T18:13:13.093Z,2.93
2024-01-14T18:28:16.497Z,3.37
2024-01-14T18:43:19.568Z,3.39
2024-01-14T18:58:24.497Z,3.09
2024-01-14T19:13:26.533Z,2.34
2024-01-14T19:28:28.649Z,3.30
2024-01-14T19:43:31.559Z,3.20
2024-01-14T19:58:33.404Z,3.05
2024-01-14T20:13:35.306Z,2.45
2024-01-14T20:28:37.240Z,2.84
2024-01-14T20:43:39.186Z,2.71
2024-01-14T20:58:41.117Z,2.86
2024-01-14T21:13:43.167Z,2.69
2024-01-14T21:28:45.133Z,2.86
2024-01-14T21:43:47.017Z,2.66
2024-01-14T21:58:49.711Z,2.74
2024-01-14T22:13:51.776Z,2.46
2024-01-14T22:28:57.254Z,2.46
2024-01-14T22:44:01.345Z,2.64
2024-01-14T22:59:03.975Z,2.34
2024-01-14T23:14:05.965Z,2.34
2024-01-14T23:29:08.018Z,2.20
2024-01-14T23:44:11.542Z,2.25
2024-01-14T23:59:13.547Z,2.05
